Terminal Aerodrome Forecast
Issued by NWS

Home | Current Version | Previous Version | Graphics & Text | Print | Product List | Glossary On
Versions: 1 2 3 4 5 6 7 8 9 10 11 12 13 14 15 16 17 18 19
000
FTUS43 KTOP 260500
TAFFOE
TAF
KFOE 260536Z 2606/2706 04007KT 6SM BR OVC011
     FM260700 05010KT 6SM BR OVC008
     FM261700 07012KT P6SM BKN020
     FM262000 07012G20KT P6SM SCT025
     FM270000 06008KT P6SM SKC=

USA.gov is the U.S. government's official web portal to all federal, state and local government web resources and services.